Time;durP1;ratioP1;P1;durP2;ratioP2;P2;SDS_P1;SDS_P2;PMS_P1;PMS_P2;Temp;Humidity;BMP_temperature;BMP_pressure;BME280_temperature;BME280_humidity;BME280_pressure;Samples;Min_cycle;Max_cycle;Signal;HPM_P1;HPM_P2
2021/10/10 00:02:14;;;;;;;13.98;9.98;;;11.30;99.90;;;;;;4772320;30;20559;-93
2021/10/10 00:04:40;;;;;;;14.17;8.80;;;11.30;99.90;;;;;;4772119;30;20294;-92
2021/10/10 00:07:06;;;;;;;10.30;8.87;;;11.30;99.90;;;;;;4772253;30;20625;-92
2021/10/10 00:09:32;;;;;;;12.70;9.17;;;11.30;99.90;;;;;;4771945;30;20816;-88
2021/10/10 00:11:58;;;;;;;14.00;10.15;;;11.30;99.90;;;;;;4770410;30;20531;-92
2021/10/10 00:14:26;;;;;;;12.82;7.93;;;11.30;99.90;;;;;;4772623;30;20208;-87
2021/10/10 00:16:53;;;;;;;13.85;9.05;;;11.30;99.90;;;;;;4771219;30;20235;-87
2021/10/10 00:19:19;;;;;;;13.73;9.73;;;11.30;99.90;;;;;;4773422;30;20762;-87
2021/10/10 00:21:45;;;;;;;19.48;10.98;;;11.30;99.90;;;;;;4771806;30;20641;-92
2021/10/10 00:24:11;;;;;;;13.73;8.53;;;11.30;99.90;;;;;;4771719;30;20184;-87
2021/10/10 00:26:37;;;;;;;16.27;9.50;;;11.30;99.90;;;;;;4772021;30;20448;-87
2021/10/10 00:29:05;;;;;;;14.10;9.97;;;11.30;99.90;;;;;;4772122;30;20195;-87
2021/10/10 00:31:36;;;;;;;18.42;9.48;;;11.30;99.90;;;;;;4786810;30;20627;-88
2021/10/10 00:34:01;;;;;;;15.00;9.80;;;11.30;99.90;;;;;;4788141;30;20176;-87
2021/10/10 00:36:27;;;;;;;14.80;9.67;;;11.30;99.90;;;;;;4772776;30;20192;-92
2021/10/10 00:38:54;;;;;;;13.55;9.50;;;11.20;99.90;;;;;;4773378;30;20448;-93
2021/10/10 00:41:24;;;;;;;16.77;10.35;;;11.20;99.90;;;;;;4771415;30;20212;-88
2021/10/10 00:43:49;;;;;;;14.68;10.88;;;11.20;99.90;;;;;;4773166;30;20220;-93
2021/10/10 00:46:19;;;;;;;13.98;9.45;;;11.20;99.90;;;;;;4772942;30;20744;-87
2021/10/10 00:48:45;;;;;;;20.45;9.63;;;11.20;99.90;;;;;;4772574;30;20248;-92
2021/10/10 00:51:16;;;;;;;13.02;9.57;;;11.20;99.90;;;;;;4785674;30;20208;-91
2021/10/10 00:53:42;;;;;;;13.50;9.82;;;11.20;99.90;;;;;;4771502;30;20670;-92
2021/10/10 00:56:10;;;;;;;16.47;10.57;;;11.20;99.90;;;;;;4770825;30;20219;-92
2021/10/10 00:58:37;;;;;;;16.92;10.07;;;11.30;99.90;;;;;;4771870;30;20476;-87
2021/10/10 01:01:04;;;;;;;16.33;11.05;;;11.20;99.90;;;;;;4770604;30;20569;-87
2021/10/10 01:03:31;;;;;;;16.60;11.25;;;11.20;99.90;;;;;;4772073;30;20666;-87
2021/10/10 01:05:57;;;;;;;14.52;10.77;;;11.20;99.90;;;;;;4772873;30;20681;-87
2021/10/10 01:08:23;;;;;;;15.18;10.32;;;11.20;99.90;;;;;;4784218;30;20220;-87
2021/10/10 01:10:50;;;;;;;16.90;10.50;;;11.20;99.90;;;;;;4780313;30;20215;-86
2021/10/10 01:13:17;;;;;;;19.08;10.73;;;11.20;99.90;;;;;;4776540;30;20192;-92
2021/10/10 01:15:45;;;;;;;15.20;10.50;;;11.20;99.90;;;;;;4771508;30;20269;-90
2021/10/10 01:18:18;;;;;;;17.17;10.77;;;11.10;99.90;;;;;;4772581;30;20231;-87
2021/10/10 01:20:46;;;;;;;13.25;10.32;;;11.20;99.90;;;;;;4772484;30;20203;-91
2021/10/10 01:23:12;;;;;;;18.95;10.50;;;11.10;99.90;;;;;;4771441;30;20538;-93
2021/10/10 01:25:49;;;;;;;13.75;10.90;;;11.10;99.90;;;;;;4770621;30;20689;-87
2021/10/10 01:28:15;;;;;;;16.25;10.95;;;11.10;99.90;;;;;;4772849;30;20642;-92
2021/10/10 01:30:41;;;;;;;13.90;10.43;;;11.10;99.90;;;;;;4770689;30;20207;-92
2021/10/10 01:33:10;;;;;;;19.00;11.30;;;11.10;99.90;;;;;;4770715;30;20768;-91
2021/10/10 01:35:39;;;;;;;16.02;12.98;;;11.10;99.90;;;;;;4771003;30;20569;-92
2021/10/10 01:38:06;;;;;;;17.92;10.27;;;11.10;99.90;;;;;;4771096;30;20408;-87
2021/10/10 01:40:34;;;;;;;15.93;10.88;;;11.10;99.90;;;;;;4772056;30;20246;-87
2021/10/10 01:43:03;;;;;;;13.57;11.07;;;11.10;99.90;;;;;;4771781;30;20196;-87
2021/10/10 01:45:30;;;;;;;15.90;10.15;;;11.00;99.90;;;;;;4771064;30;20207;-87
2021/10/10 01:47:57;;;;;;;16.92;10.52;;;11.10;99.90;;;;;;4772052;30;20183;-88
2021/10/10 01:50:25;;;;;;;20.02;10.93;;;11.00;99.90;;;;;;4771322;30;20273;-88
2021/10/10 01:52:51;;;;;;;20.08;10.65;;;11.00;99.90;;;;;;4770569;30;20247;-87
2021/10/10 01:55:19;;;;;;;16.35;11.02;;;11.00;99.90;;;;;;4770232;30;20224;-88
2021/10/10 01:57:45;;;;;;;19.70;11.82;;;11.00;99.90;;;;;;4772082;30;20223;-93
2021/10/10 02:00:13;;;;;;;14.88;11.20;;;11.00;99.90;;;;;;4770414;30;20693;-87
2021/10/10 02:02:41;;;;;;;22.02;10.60;;;11.00;99.90;;;;;;4770821;30;20184;-87
2021/10/10 02:05:08;;;;;;;14.15;10.70;;;10.90;99.90;;;;;;4770286;30;20218;-92
2021/10/10 02:07:35;;;;;;;17.35;11.95;;;10.90;99.90;;;;;;4770394;30;20539;-92
2021/10/10 02:10:01;;;;;;;21.20;11.60;;;10.90;99.90;;;;;;4770553;30;20215;-92
2021/10/10 02:12:26;;;;;;;17.55;11.70;;;10.90;99.90;;;;;;4772150;30;20502;-93
2021/10/10 02:14:54;;;;;;;16.27;10.97;;;10.90;99.90;;;;;;4784881;30;20211;-87
2021/10/10 02:17:22;;;;;;;24.23;11.00;;;10.90;99.90;;;;;;4785683;30;20462;-87
2021/10/10 02:19:48;;;;;;;17.58;11.38;;;10.90;99.90;;;;;;4784580;30;20237;-91
2021/10/10 02:22:14;;;;;;;17.80;11.30;;;10.90;99.90;;;;;;4772569;30;20639;-91
2021/10/10 02:24:40;;;;;;;16.33;11.37;;;10.90;99.90;;;;;;4770528;30;20456;-87
2021/10/10 02:27:07;;;;;;;13.85;10.45;;;10.90;99.90;;;;;;4771389;30;20426;-87
2021/10/10 02:29:33;;;;;;;19.85;12.48;;;10.90;99.90;;;;;;4770578;30;20301;-92
2021/10/10 02:32:00;;;;;;;15.73;10.40;;;10.80;99.90;;;;;;4771135;30;20188;-92
2021/10/10 02:34:28;;;;;;;14.13;10.35;;;10.80;99.90;;;;;;4771646;30;20211;-88
2021/10/10 02:36:59;;;;;;;17.33;11.88;;;10.80;99.90;;;;;;4773919;30;20773;-92
2021/10/10 02:39:25;;;;;;;16.45;11.68;;;10.80;99.90;;;;;;4773511;30;20204;-87
2021/10/10 02:41:52;;;;;;;14.93;10.80;;;10.80;99.90;;;;;;4773549;30;20200;-87
2021/10/10 02:44:20;;;;;;;16.48;11.07;;;10.80;99.90;;;;;;4773331;30;20187;-87
2021/10/10 02:46:45;;;;;;;23.48;11.50;;;10.80;99.90;;;;;;4773508;30;20727;-93
2021/10/10 02:49:16;;;;;;;16.97;11.20;;;10.80;99.90;;;;;;4773844;30;20647;-87
2021/10/10 02:51:44;;;;;;;22.33;12.05;;;10.70;99.90;;;;;;4773311;30;20726;-87
2021/10/10 02:54:10;;;;;;;20.75;11.57;;;10.70;99.90;;;;;;4772903;30;20704;-92
2021/10/10 02:56:38;;;;;;;17.15;11.15;;;10.70;99.90;;;;;;4773409;30;20199;-93
2021/10/10 02:59:04;;;;;;;19.92;12.45;;;10.70;99.90;;;;;;4774528;30;20188;-92
2021/10/10 03:01:32;;;;;;;19.35;11.80;;;10.70;99.90;;;;;;4773240;30;20219;-92
2021/10/10 03:04:00;;;;;;;18.80;11.00;;;10.70;99.90;;;;;;4773638;30;20272;-92
2021/10/10 03:06:26;;;;;;;15.98;10.65;;;10.70;99.90;;;;;;4773497;30;20215;-92
2021/10/10 03:08:53;;;;;;;15.70;11.38;;;10.70;99.90;;;;;;4783942;30;20191;-92
2021/10/10 03:11:20;;;;;;;18.15;11.15;;;10.60;99.90;;;;;;4785968;30;20212;-87
2021/10/10 03:13:46;;;;;;;16.75;10.88;;;10.60;99.90;;;;;;4777923;30;20191;-91
2021/10/10 03:16:14;;;;;;;15.98;11.05;;;10.60;99.90;;;;;;4772790;30;20212;-87
2021/10/10 03:18:42;;;;;;;14.13;9.77;;;10.60;99.90;;;;;;4772733;30;20248;-87
2021/10/10 03:21:08;;;;;;;12.38;9.93;;;10.60;99.90;;;;;;4772645;30;20212;-89
2021/10/10 03:23:35;;;;;;;15.93;10.80;;;10.60;99.90;;;;;;4773228;30;20187;-93
2021/10/10 03:26:02;;;;;;;18.70;11.77;;;10.60;99.90;;;;;;4772939;30;20215;-87
2021/10/10 03:28:28;;;;;;;15.68;11.07;;;10.60;99.90;;;;;;4773073;30;20750;-87
2021/10/10 03:30:55;;;;;;;17.42;11.80;;;10.60;99.90;;;;;;4773170;30;20218;-87
2021/10/10 03:33:21;;;;;;;15.05;9.93;;;10.60;99.90;;;;;;4773233;30;20195;-91
2021/10/10 03:35:56;;;;;;;16.20;10.87;;;10.50;99.90;;;;;;4774602;30;20357;-87
2021/10/10 03:38:23;;;;;;;17.27;10.27;;;10.50;99.90;;;;;;4772269;30;20407;-87
2021/10/10 03:40:49;;;;;;;18.13;10.80;;;10.50;99.90;;;;;;4771908;30;20215;-92
2021/10/10 03:43:15;;;;;;;18.50;11.18;;;10.50;99.90;;;;;;4772965;30;20677;-87
2021/10/10 03:45:42;;;;;;;19.55;11.85;;;10.50;99.90;;;;;;4774645;30;20208;-92
2021/10/10 03:48:09;;;;;;;18.08;11.63;;;10.50;99.90;;;;;;4772680;30;20190;-92
2021/10/10 03:50:36;;;;;;;17.00;11.70;;;10.60;99.90;;;;;;4774456;30;20298;-87
2021/10/10 03:53:03;;;;;;;16.90;10.40;;;10.60;99.90;;;;;;4773488;30;20487;-87
2021/10/10 03:55:36;;;;;;;14.50;12.05;;;10.50;99.90;;;;;;4785321;30;20204;-87
2021/10/10 03:58:03;;;;;;;16.55;11.30;;;10.50;99.90;;;;;;4772555;30;20228;-92
2021/10/10 04:00:31;;;;;;;22.10;11.40;;;10.50;99.90;;;;;;4772517;30;20212;-92
2021/10/10 04:03:04;;;;;;;13.80;10.65;;;10.50;99.90;;;;;;4772377;30;20203;-87
2021/10/10 04:08:00;;;;;;;16.38;11.25;;;10.50;99.90;;;;;;4773747;30;20283;-87
2021/10/10 04:10:27;;;;;;;17.98;12.10;;;10.50;99.90;;;;;;4772504;30;20211;-87
2021/10/10 04:12:53;;;;;;;16.25;10.95;;;10.50;99.90;;;;;;4772440;30;20238;-92
2021/10/10 04:15:20;;;;;;;15.73;11.23;;;10.50;99.90;;;;;;4771965;30;20215;-92
2021/10/10 04:17:48;;;;;;;18.73;12.00;;;10.50;99.90;;;;;;4771771;30;20313;-87
2021/10/10 04:20:17;;;;;;;16.98;11.38;;;10.50;99.90;;;;;;4771385;30;20212;-93
2021/10/10 04:22:46;;;;;;;13.25;10.23;;;10.50;99.90;;;;;;4772250;30;20370;-87
2021/10/10 04:25:12;;;;;;;15.93;11.57;;;10.50;99.90;;;;;;4771441;30;20682;-93
2021/10/10 04:27:39;;;;;;;14.48;9.82;;;10.50;99.90;;;;;;4771592;30;20192;-93
2021/10/10 04:30:12;;;;;;;16.58;10.63;;;10.50;99.90;;;;;;4771899;30;20266;-93
2021/10/10 04:32:39;;;;;;;15.60;11.07;;;10.50;99.90;;;;;;4771760;30;20198;-87
2021/10/10 04:35:08;;;;;;;16.45;10.77;;;10.50;99.90;;;;;;4771438;30;20215;-87
2021/10/10 04:37:33;;;;;;;17.27;10.10;;;10.50;99.90;;;;;;4771858;30;20648;-91
2021/10/10 04:40:04;;;;;;;17.07;10.00;;;10.40;99.90;;;;;;4771433;30;20228;-87
2021/10/10 04:42:33;;;;;;;17.80;10.85;;;10.40;99.90;;;;;;4771502;30;20192;-92
2021/10/10 04:45:00;;;;;;;19.13;12.02;;;10.40;99.90;;;;;;4771762;30;20216;-93
2021/10/10 04:47:29;;;;;;;15.63;10.98;;;10.40;99.90;;;;;;4778449;30;20191;-87
2021/10/10 04:49:58;;;;;;;18.90;12.20;;;10.40;99.90;;;;;;4774260;30;20222;-87
2021/10/10 04:52:24;;;;;;;16.35;11.45;;;10.30;99.90;;;;;;4780646;30;20725;-92
2021/10/10 04:54:51;;;;;;;17.90;12.70;;;10.30;99.90;;;;;;4788770;30;20207;-88
2021/10/10 04:57:17;;;;;;;13.65;10.18;;;10.30;99.90;;;;;;4779531;30;20495;-92
2021/10/10 04:59:52;;;;;;;27.05;12.30;;;10.30;99.90;;;;;;4771903;30;20215;-93
2021/10/10 05:02:24;;;;;;;18.58;13.38;;;10.30;99.90;;;;;;4775411;30;20195;-87
2021/10/10 05:04:52;;;;;;;24.95;12.95;;;10.30;99.90;;;;;;4771457;30;20212;-91
2021/10/10 05:07:20;;;;;;;15.40;11.57;;;10.30;99.90;;;;;;4771034;30;20530;-93
2021/10/10 05:09:46;;;;;;;15.52;11.55;;;10.30;99.90;;;;;;4771164;30;20215;-93
2021/10/10 05:12:14;;;;;;;19.02;12.13;;;10.20;99.90;;;;;;4772003;30;20192;-87
2021/10/10 05:14:41;;;;;;;18.48;12.25;;;10.20;99.90;;;;;;4771473;30;20203;-93
2021/10/10 05:17:09;;;;;;;16.92;12.52;;;10.20;99.90;;;;;;4771443;30;20231;-87
2021/10/10 05:19:35;;;;;;;20.02;11.77;;;10.10;99.90;;;;;;4772332;30;20281;-93
2021/10/10 05:22:03;;;;;;;18.57;12.47;;;10.10;99.90;;;;;;4772664;30;20192;-87
2021/10/10 05:24:31;;;;;;;18.95;12.50;;;10.10;99.90;;;;;;4771838;30;21043;-87
2021/10/10 05:26:59;;;;;;;17.75;13.10;;;10.10;99.90;;;;;;4771491;30;20196;-87
2021/10/10 05:29:25;;;;;;;20.15;13.18;;;10.10;99.90;;;;;;4772304;30;20231;-92
2021/10/10 05:31:51;;;;;;;19.63;12.73;;;10.10;99.90;;;;;;4771475;30;20199;-92
2021/10/10 05:34:18;;;;;;;19.13;13.98;;;10.10;99.90;;;;;;4770616;30;20718;-92
2021/10/10 05:36:44;;;;;;;17.20;13.23;;;10.10;99.90;;;;;;4771027;30;20206;-92
2021/10/10 05:39:12;;;;;;;19.47;13.70;;;10.10;99.90;;;;;;4770772;30;20188;-87
2021/10/10 05:41:38;;;;;;;21.20;14.38;;;10.10;99.90;;;;;;4770809;30;20667;-89
2021/10/10 05:44:05;;;;;;;21.77;13.30;;;10.10;99.90;;;;;;4770917;30;20658;-87
2021/10/10 05:46:31;;;;;;;18.45;12.70;;;10.10;99.90;;;;;;4779954;29;20218;-93
2021/10/10 05:48:58;;;;;;;23.17;13.60;;;10.10;99.90;;;;;;4777431;30;20192;-87
2021/10/10 05:51:26;;;;;;;22.42;13.88;;;10.10;99.90;;;;;;4783448;30;20220;-87
2021/10/10 05:53:52;;;;;;;24.52;14.38;;;10.10;99.90;;;;;;4779409;30;20192;-93
2021/10/10 05:56:20;;;;;;;19.58;13.80;;;10.10;99.90;;;;;;4777690;29;20227;-88
2021/10/10 05:58:50;;;;;;;22.33;14.35;;;10.10;99.90;;;;;;4780709;30;20629;-93
2021/10/10 06:01:17;;;;;;;17.92;13.13;;;10.00;99.90;;;;;;4752715;30;20227;-92
2021/10/10 06:03:44;;;;;;;22.27;14.38;;;10.00;99.90;;;;;;4761389;30;20552;-87
2021/10/10 06:06:11;;;;;;;20.30;14.23;;;10.10;99.90;;;;;;4770444;30;20226;-88
2021/10/10 06:08:37;;;;;;;20.27;13.35;;;10.10;99.90;;;;;;4776195;30;20191;-87
2021/10/10 06:11:03;;;;;;;21.37;14.63;;;10.10;99.90;;;;;;4762489;30;20220;-87
2021/10/10 06:13:31;;;;;;;18.80;13.57;;;10.10;99.90;;;;;;4761337;30;20250;-87
2021/10/10 06:15:58;;;;;;;21.20;13.35;;;10.10;99.90;;;;;;4797548;30;20215;-87
2021/10/10 06:18:25;;;;;;;24.05;14.15;;;10.10;99.90;;;;;;4790774;30;20224;-93
2021/10/10 06:20:51;;;;;;;21.05;13.18;;;10.10;99.90;;;;;;4788634;30;20215;-88
2021/10/10 06:23:17;;;;;;;25.58;14.55;;;10.10;99.90;;;;;;4779853;30;20667;-88
2021/10/10 06:25:44;;;;;;;22.20;14.77;;;10.20;99.90;;;;;;4776213;30;20269;-92
2021/10/10 06:28:12;;;;;;;22.05;15.35;;;10.10;99.90;;;;;;4781097;30;20601;-92
2021/10/10 06:30:38;;;;;;;23.33;14.93;;;10.20;99.90;;;;;;4773579;30;20647;-88
2021/10/10 06:33:05;;;;;;;20.20;14.63;;;10.20;99.90;;;;;;4787460;30;20607;-92
2021/10/10 06:35:32;;;;;;;23.77;14.80;;;10.20;99.90;;;;;;4773490;30;20215;-87
2021/10/10 06:37:58;;;;;;;20.58;14.27;;;10.20;99.90;;;;;;4774774;30;20668;-93
2021/10/10 06:40:25;;;;;;;26.42;14.38;;;10.20;99.90;;;;;;4774228;30;20215;-88
2021/10/10 06:42:50;;;;;;;21.30;13.80;;;10.20;99.90;;;;;;4787985;29;20234;-93
2021/10/10 06:45:19;;;;;;;22.77;14.80;;;10.20;99.90;;;;;;4777294;30;20658;-88
2021/10/10 06:47:45;;;;;;;20.80;14.60;;;10.20;99.90;;;;;;4783293;30;20196;-87
2021/10/10 06:50:11;;;;;;;20.25;15.27;;;10.20;99.90;;;;;;4788534;29;20220;-95
2021/10/10 06:52:38;;;;;;;19.83;13.57;;;10.20;99.90;;;;;;4792943;29;20251;-95
2021/10/10 06:55:05;;;;;;;19.25;14.10;;;10.20;99.90;;;;;;4789094;29;20235;-93
2021/10/10 06:57:32;;;;;;;23.30;14.88;;;10.20;99.90;;;;;;4788635;30;20311;-94
2021/10/10 07:00:00;;;;;;;20.30;14.30;;;10.20;99.90;;;;;;4782467;30;20255;-88
2021/10/10 07:02:28;;;;;;;22.20;14.80;;;10.30;99.90;;;;;;4784513;30;20172;-90
2021/10/10 07:04:55;;;;;;;25.95;16.45;;;10.30;99.90;;;;;;4763051;30;20215;-95
2021/10/10 07:07:25;;;;;;;24.17;14.20;;;10.40;99.90;;;;;;4765310;30;20234;-87
2021/10/10 07:09:53;;;;;;;19.45;13.52;;;10.40;99.90;;;;;;4788105;29;20224;-88
2021/10/10 07:12:19;;;;;;;23.33;13.05;;;10.40;99.90;;;;;;4783131;30;20273;-87
2021/10/10 07:14:47;;;;;;;24.30;15.43;;;10.40;99.90;;;;;;4785556;29;20280;-87
2021/10/10 07:17:16;;;;;;;24.05;15.38;;;10.40;99.90;;;;;;4768414;30;20229;-88
2021/10/10 07:19:49;;;;;;;23.63;14.93;;;10.40;99.90;;;;;;4796449;30;20224;-89
2021/10/10 07:22:27;;;;;;;24.70;15.68;;;10.40;99.90;;;;;;4770724;30;20200;-94
2021/10/10 07:25:15;;;;;;;24.58;14.98;;;10.40;99.90;;;;;;4776017;30;20314;-88
2021/10/10 07:27:44;;;;;;;23.55;15.95;;;10.50;99.90;;;;;;4774974;30;20204;-94
2021/10/10 07:30:13;;;;;;;21.15;14.27;;;10.40;99.90;;;;;;4772313;30;20542;-87
2021/10/10 07:32:40;;;;;;;21.98;14.63;;;10.50;99.90;;;;;;4773801;30;20189;-94
2021/10/10 07:35:07;;;;;;;22.95;14.75;;;10.40;99.90;;;;;;4771970;30;20662;-93
2021/10/10 07:37:35;;;;;;;27.40;15.77;;;10.40;99.90;;;;;;4786268;30;20227;-94
2021/10/10 07:40:03;;;;;;;22.77;15.38;;;10.40;99.90;;;;;;4799556;29;20616;-95
2021/10/10 07:42:29;;;;;;;22.48;14.40;;;10.40;99.90;;;;;;4783869;30;20196;-94
2021/10/10 07:45:04;;;;;;;21.23;16.00;;;10.40;99.90;;;;;;4767897;30;20239;-93
2021/10/10 07:50:12;;;;;;;20.95;14.93;;;10.50;99.90;;;;;;4755187;30;20236;-96
2021/10/10 07:52:42;;;;;;;23.17;15.45;;;10.40;99.90;;;;;;4779087;30;20326;-87
2021/10/10 07:55:09;;;;;;;22.90;14.90;;;10.40;99.90;;;;;;4787182;29;20222;-96
2021/10/10 07:57:35;;;;;;;21.02;14.88;;;10.40;99.90;;;;;;4789350;30;20317;-94
2021/10/10 08:00:02;;;;;;;19.93;15.13;;;10.50;99.90;;;;;;4783922;30;20203;-89
2021/10/10 08:02:28;;;;;;;25.33;15.20;;;10.50;99.90;;;;;;4777641;30;20207;-95
2021/10/10 08:04:56;;;;;;;22.10;16.03;;;10.50;99.90;;;;;;4769235;30;20715;-86
2021/10/10 08:07:22;;;;;;;26.30;16.13;;;10.60;99.90;;;;;;4753120;30;20189;-94
2021/10/10 08:09:48;;;;;;;24.60;15.13;;;10.60;99.90;;;;;;4772078;30;20223;-90
2021/10/10 08:12:19;;;;;;;23.80;16.40;;;10.70;99.90;;;;;;4771129;30;20282;-94
2021/10/10 08:14:45;;;;;;;24.42;14.68;;;10.70;99.90;;;;;;4772604;30;20649;-94
2021/10/10 08:17:11;;;;;;;24.08;15.85;;;10.70;99.90;;;;;;4773706;30;20247;-87
2021/10/10 08:19:37;;;;;;;27.38;16.42;;;10.70;99.90;;;;;;4780227;30;20203;-87
2021/10/10 08:22:04;;;;;;;22.65;15.43;;;10.80;99.90;;;;;;4772834;30;20200;-94
2021/10/10 08:24:30;;;;;;;23.58;15.45;;;10.80;99.90;;;;;;4774530;30;20195;-87
2021/10/10 08:26:56;;;;;;;24.08;16.95;;;10.80;99.90;;;;;;4786940;30;20249;-95
2021/10/10 08:29:24;;;;;;;31.00;17.90;;;10.90;99.90;;;;;;4769743;30;20208;-87
2021/10/10 08:31:49;;;;;;;23.85;15.50;;;10.90;99.90;;;;;;4770415;30;20204;-88
2021/10/10 08:34:15;;;;;;;23.43;15.80;;;10.90;99.90;;;;;;4774962;30;20194;-94
2021/10/10 08:36:43;;;;;;;27.43;17.53;;;10.90;99.90;;;;;;4786351;30;20435;-87
2021/10/10 08:39:09;;;;;;;23.15;16.70;;;10.90;99.90;;;;;;4770758;30;20223;-96
2021/10/10 08:41:41;;;;;;;29.30;18.57;;;10.90;99.90;;;;;;4787097;30;20192;-93
2021/10/10 08:44:11;;;;;;;21.45;15.73;;;10.90;99.90;;;;;;4774176;30;20199;-87
2021/10/10 08:46:39;;;;;;;22.67;14.75;;;10.90;99.90;;;;;;4785052;30;20192;-95
2021/10/10 08:49:05;;;;;;;22.70;15.68;;;10.90;99.90;;;;;;4786181;30;20188;-94
2021/10/10 08:51:35;;;;;;;25.17;14.02;;;10.90;99.90;;;;;;4771286;30;20275;-86
2021/10/10 09:13:35;;;;;;;21.42;15.23;;;10.90;99.90;;;;;;6216355;22;20236;-95
2021/10/10 09:16:04;;;;;;;27.35;15.60;;;11.00;99.90;;;;;;6200076;23;20180;-87
2021/10/10 09:18:39;;;;;;;19.92;14.63;;;11.00;99.90;;;;;;6200003;23;20165;-87
2021/10/10 09:21:22;;;;;;;21.02;14.13;;;11.10;99.90;;;;;;6199974;23;20177;-94
2021/10/10 09:23:54;;;;;;;20.08;14.82;;;11.20;99.90;;;;;;6200474;23;20242;-94
2021/10/10 09:26:22;;;;;;;24.88;14.02;;;11.30;99.90;;;;;;6201315;23;20185;-87
2021/10/10 09:28:50;;;;;;;25.67;16.60;;;11.30;99.90;;;;;;6211056;23;20161;-94
2021/10/10 09:31:16;;;;;;;20.45;13.73;;;11.40;99.90;;;;;;6207773;23;20204;-87
2021/10/10 09:33:48;;;;;;;22.15;16.00;;;11.40;99.90;;;;;;6199663;23;20204;-87
2021/10/10 09:36:20;;;;;;;21.05;14.18;;;11.50;99.90;;;;;;6200158;23;20181;-96
2021/10/10 09:38:57;;;;;;;21.67;14.15;;;11.50;99.90;;;;;;6200233;23;20591;-87
2021/10/10 09:41:44;;;;;;;17.90;13.15;;;11.60;99.90;;;;;;6198273;23;20242;-94
2021/10/10 09:44:24;;;;;;;23.20;13.15;;;11.70;99.90;;;;;;6199104;23;20252;-94
2021/10/10 09:46:51;;;;;;;23.08;13.98;;;11.80;99.90;;;;;;6198901;23;20229;-88
2021/10/10 09:49:27;;;;;;;22.52;13.55;;;11.90;99.90;;;;;;6197830;23;20161;-93
2021/10/10 09:51:56;;;;;;;19.73;13.32;;;12.00;99.90;;;;;;6199637;23;20228;-92
2021/10/10 09:54:23;;;;;;;22.42;15.20;;;12.10;99.90;;;;;;6203597;23;20197;-91
2021/10/10 09:57:11;;;;;;;24.13;13.63;;;12.20;99.90;;;;;;6196467;23;20154;-88
2021/10/10 09:59:41;;;;;;;21.15;15.57;;;12.20;99.90;;;;;;6197595;23;20184;-87
2021/10/10 10:02:07;;;;;;;20.85;13.75;;;12.20;99.90;;;;;;6198410;23;20161;-92
2021/10/10 10:04:48;;;;;;;17.73;13.18;;;12.30;99.90;;;;;;6195259;23;20182;-87
2021/10/10 10:07:17;;;;;;;20.55;13.77;;;12.30;99.90;;;;;;6191542;23;20165;-88
2021/10/10 10:09:50;;;;;;;20.83;13.40;;;12.30;99.90;;;;;;6203184;23;20638;-92
2021/10/10 10:12:21;;;;;;;18.38;14.23;;;12.40;99.90;;;;;;6216951;23;20202;-92
2021/10/10 10:15:01;;;;;;;20.23;13.75;;;12.40;99.90;;;;;;6191020;23;20228;-87
2021/10/10 10:17:27;;;;;;;20.50;13.30;;;12.50;99.90;;;;;;6191818;23;20252;-92
2021/10/10 10:20:00;;;;;;;20.48;14.20;;;12.50;99.90;;;;;;6190626;23;20178;-92
2021/10/10 10:22:30;;;;;;;21.42;13.63;;;12.60;99.90;;;;;;6191055;23;20173;-88
2021/10/10 10:24:58;;;;;;;24.40;13.02;;;12.60;99.90;;;;;;6189220;23;20638;-91
2021/10/10 10:27:23;;;;;;;23.48;14.25;;;12.60;99.90;;;;;;6188460;23;20158;-93
2021/10/10 10:29:53;;;;;;;21.17;13.70;;;12.70;99.90;;;;;;6188129;23;20205;-92
2021/10/10 10:32:22;;;;;;;21.17;13.52;;;12.70;99.90;;;;;;6188465;23;20485;-87
2021/10/10 10:34:57;;;;;;;22.90;13.05;;;12.70;99.90;;;;;;6187902;23;20216;-87
2021/10/10 10:37:43;;;;;;;20.13;12.57;;;12.80;99.90;;;;;;6187222;23;20172;-87
2021/10/10 10:40:16;;;;;;;22.73;13.50;;;12.80;99.90;;;;;;6195430;23;20260;-87
2021/10/10 10:42:46;;;;;;;18.17;13.35;;;12.80;99.90;;;;;;6215787;23;20166;-88
2021/10/10 10:45:46;;;;;;;24.67;15.60;;;12.80;99.90;;;;;;6205608;23;20174;-92
2021/10/10 10:48:27;;;;;;;24.67;13.60;;;12.80;99.90;;;;;;6192000;23;20621;-92
2021/10/10 10:51:26;;;;;;;19.77;13.48;;;12.80;99.90;;;;;;6191480;23;20181;-88
2021/10/10 10:53:53;;;;;;;21.13;14.02;;;12.80;99.90;;;;;;6191949;23;20202;-87
2021/10/10 10:56:33;;;;;;;22.77;14.50;;;12.80;99.90;;;;;;6218605;23;20162;-88
2021/10/10 10:59:00;;;;;;;21.77;14.30;;;12.80;99.90;;;;;;6191476;23;20165;-87
2021/10/10 11:01:48;;;;;;;26.00;14.43;;;12.80;99.90;;;;;;6191740;23;20178;-87
2021/10/10 11:04:27;;;;;;;28.83;14.70;;;12.80;99.90;;;;;;6191347;23;20162;-92
2021/10/10 11:06:58;;;;;;;22.50;14.05;;;12.90;99.90;;;;;;6191235;23;20495;-88
2021/10/10 11:09:26;;;;;;;25.23;14.27;;;12.80;99.90;;;;;;6203034;23;20158;-88
2021/10/10 11:12:00;;;;;;;18.80;12.68;;;12.90;99.90;;;;;;6214254;23;20204;-87
2021/10/10 11:14:29;;;;;;;24.90;14.18;;;12.80;99.90;;;;;;6191162;23;20615;-87
2021/10/10 11:17:06;;;;;;;21.25;14.60;;;12.80;99.90;;;;;;6190809;23;20229;-87
2021/10/10 11:19:32;;;;;;;23.13;14.18;;;12.80;99.90;;;;;;6191709;23;20284;-92
2021/10/10 11:22:00;;;;;;;26.40;14.07;;;12.80;99.90;;;;;;6190998;23;20170;-87
2021/10/10 11:24:26;;;;;;;28.77;16.10;;;12.80;99.90;;;;;;6191183;23;20174;-87
2021/10/10 11:26:53;;;;;;;30.20;15.68;;;12.80;99.90;;;;;;6191538;23;20186;-92
2021/10/10 11:29:24;;;;;;;26.10;14.63;;;12.80;99.90;;;;;;6191321;23;20213;-93
2021/10/10 11:31:50;;;;;;;39.35;15.00;;;12.80;99.90;;;;;;6191043;23;20186;-92
2021/10/10 11:34:23;;;;;;;21.48;14.35;;;12.70;99.90;;;;;;6217709;23;20150;-93
2021/10/10 11:36:59;;;;;;;19.43;12.63;;;12.70;99.90;;;;;;6191047;23;20204;-86
2021/10/10 11:39:27;;;;;;;30.35;14.93;;;12.70;99.90;;;;;;6217333;23;20430;-92
2021/10/10 11:42:00;;;;;;;18.15;12.15;;;12.70;99.90;;;;;;6191039;23;20229;-88
2021/10/10 11:44:39;;;;;;;20.70;12.50;;;12.70;99.90;;;;;;6191492;23;20619;-87
2021/10/10 11:47:16;;;;;;;19.35;14.20;;;12.70;99.90;;;;;;6190830;23;20162;-93
2021/10/10 11:49:45;;;;;;;17.75;13.35;;;12.70;99.90;;;;;;6200706;23;20173;-89
2021/10/10 11:52:27;;;;;;;23.38;13.77;;;12.60;99.90;;;;;;6211323;23;20200;-93
2021/10/10 11:57:30;;;;;;;25.10;14.82;;;12.60;99.90;;;;;;6224899;23;20162;-92
2021/10/10 12:00:01;;;;;;;21.13;13.25;;;12.60;99.90;;;;;;6190875;23;20265;-88
2021/10/10 12:02:47;;;;;;;21.20;14.32;;;12.60;99.90;;;;;;6191415;23;20162;-87
2021/10/10 12:05:24;;;;;;;21.48;14.02;;;12.60;99.90;;;;;;6217780;23;20174;-93
2021/10/10 12:07:53;;;;;;;23.25;15.73;;;12.50;99.90;;;;;;6190586;23;20611;-91
2021/10/10 12:10:21;;;;;;;27.23;16.92;;;12.50;99.90;;;;;;6217466;23;20166;-93
2021/10/10 12:12:49;;;;;;;23.52;15.45;;;12.50;99.90;;;;;;6216827;23;20209;-92
2021/10/10 12:15:23;;;;;;;19.55;13.70;;;12.50;99.90;;;;;;6190992;23;20177;-88
2021/10/10 12:17:53;;;;;;;20.05;15.82;;;12.50;99.90;;;;;;6191080;23;20201;-92
2021/10/10 12:20:23;;;;;;;20.02;15.05;;;12.50;99.90;;;;;;6190629;23;20177;-93
2021/10/10 12:22:57;;;;;;;28.85;14.80;;;12.50;99.90;;;;;;6190806;23;20172;-87
2021/10/10 12:25:34;;;;;;;18.33;13.02;;;12.50;99.90;;;;;;6190498;23;20170;-87
2021/10/10 12:28:06;;;;;;;26.45;15.75;;;12.50;99.90;;;;;;6190406;23;20586;-87
2021/10/10 12:30:39;;;;;;;20.27;14.30;;;12.50;99.90;;;;;;6190590;23;20174;-87
2021/10/10 12:33:23;;;;;;;19.88;14.10;;;12.50;99.90;;;;;;6194893;23;20197;-91
2021/10/10 12:36:05;;;;;;;30.15;16.45;;;12.50;99.90;;;;;;6205910;23;20249;-92
2021/10/10 12:38:46;;;;;;;22.63;14.45;;;12.60;99.90;;;;;;6208923;23;20461;-93
2021/10/10 12:41:23;;;;;;;23.33;14.13;;;12.60;99.90;;;;;;6211912;23;20577;-89
2021/10/10 12:44:12;;;;;;;25.85;16.02;;;12.60;99.90;;;;;;6202332;23;20626;-88
2021/10/10 12:46:53;;;;;;;25.45;16.05;;;12.60;99.90;;;;;;6193376;23;20153;-88
2021/10/10 12:49:31;;;;;;;23.90;15.77;;;12.60;99.90;;;;;;6190267;23;20160;-92
2021/10/10 12:51:59;;;;;;;23.85;15.13;;;12.60;99.90;;;;;;6191232;23;20403;-91
2021/10/10 12:54:27;;;;;;;21.15;14.18;;;12.60;99.90;;;;;;6191091;23;20212;-87
2021/10/10 12:57:05;;;;;;;20.63;15.17;;;12.70;99.90;;;;;;6217434;23;20507;-87
2021/10/10 12:59:36;;;;;;;22.30;14.20;;;12.60;99.90;;;;;;6190722;23;20877;-91
2021/10/10 13:02:07;;;;;;;20.27;13.48;;;12.60;99.90;;;;;;6190556;23;20463;-92
2021/10/10 13:04:35;;;;;;;21.48;14.52;;;12.70;99.90;;;;;;6216817;23;20189;-92
2021/10/10 13:07:01;;;;;;;24.70;15.20;;;12.70;99.90;;;;;;6189605;23;20161;-87